createdAt,value
2022-10-24T00:00:25.146Z,5.3
2022-10-24T00:05:25.101Z,5.3
2022-10-24T00:10:25.111Z,6.4
2022-10-24T00:15:25.100Z,0
2022-10-24T00:20:25.087Z,4
2022-10-24T00:25:25.117Z,6.2
2022-10-24T00:30:25.110Z,5.8
2022-10-24T00:35:25.107Z,7.8
2022-10-24T00:40:25.106Z,7.3
2022-10-24T00:45:25.125Z,6.9
2022-10-24T00:50:25.109Z,8.6
2022-10-24T00:55:25.105Z,8.6
2022-10-24T01:00:25.200Z,7.1
2022-10-24T01:05:25.106Z,8.1
2022-10-24T01:10:25.157Z,7.5
2022-10-24T01:15:25.114Z,7.6
2022-10-24T01:20:25.098Z,6.8
2022-10-24T01:25:25.110Z,7.4
2022-10-24T01:30:25.097Z,8
2022-10-24T01:35:25.143Z,8.4
2022-10-24T01:40:25.104Z,7.7
2022-10-24T01:45:25.102Z,6.8
2022-10-24T01:50:25.099Z,6.8
2022-10-24T01:55:25.101Z,7.5
2022-10-24T02:00:25.203Z,7.5
2022-10-24T02:05:25.115Z,7.1
2022-10-24T02:10:25.096Z,7.1
2022-10-24T02:15:25.113Z,6.1
2022-10-24T02:20:25.105Z,0
2022-10-24T02:25:25.105Z,0
2022-10-24T02:30:25.103Z,0
2022-10-24T02:35:25.103Z,0
2022-10-24T02:40:25.109Z,5.1
2022-10-24T02:45:25.098Z,6.2
2022-10-24T02:50:25.101Z,6.4
2022-10-24T02:55:25.114Z,5.9
2022-10-24T03:00:25.194Z,6
2022-10-24T03:05:25.095Z,7.8
2022-10-24T03:10:25.094Z,4
2022-10-24T03:15:25.105Z,4
2022-10-24T03:20:25.103Z,8.2
2022-10-24T03:25:25.100Z,8.6
2022-10-24T03:30:25.113Z,10.2
2022-10-24T03:35:25.100Z,12.4
2022-10-24T03:40:25.097Z,11.4
2022-10-24T03:45:25.113Z,8.7
2022-10-24T03:50:25.102Z,8.3
2022-10-24T03:55:25.108Z,9
2022-10-24T04:00:25.108Z,7.8
2022-10-24T04:05:25.105Z,7.6
2022-10-24T04:10:25.123Z,8.5
2022-10-24T04:15:25.105Z,9
2022-10-24T04:20:25.113Z,8.5
2022-10-24T04:25:25.107Z,10.2
2022-10-24T04:30:25.105Z,9.5
2022-10-24T04:35:25.109Z,12.3
2022-10-24T04:40:25.096Z,14.1
2022-10-24T04:45:25.108Z,16.9
2022-10-24T04:50:25.109Z,16.3
2022-10-24T04:55:25.140Z,14.8
2022-10-24T05:00:25.109Z,12.1
2022-10-24T05:05:25.105Z,10.6
2022-10-24T05:10:25.098Z,6.4
2022-10-24T05:15:25.105Z,4.2
2022-10-24T05:20:25.103Z,10.8
2022-10-24T05:25:25.105Z,11
2022-10-24T05:30:25.101Z,15
2022-10-24T05:35:25.101Z,20.2
2022-10-24T05:40:25.107Z,29.2
2022-10-24T05:45:25.109Z,30.8
2022-10-24T05:50:25.105Z,12.5
2022-10-24T05:55:25.098Z,10
2022-10-24T06:00:25.101Z,11.9
2022-10-24T06:05:25.107Z,13.7
2022-10-24T06:10:25.108Z,11.9
2022-10-24T06:15:25.101Z,10.8
2022-10-24T06:20:25.088Z,10.8
2022-10-24T06:25:25.095Z,12.1
2022-10-24T06:30:25.097Z,12.2
2022-10-24T06:35:25.095Z,10.5
2022-10-24T06:40:25.109Z,11
2022-10-24T06:45:25.105Z,10.8
2022-10-24T06:50:25.092Z,9
2022-10-24T06:55:25.105Z,16.1
2022-10-24T07:00:25.141Z,18.1
2022-10-24T07:05:25.117Z,21.8
2022-10-24T07:10:25.103Z,19.6
2022-10-24T07:15:25.097Z,19.7
2022-10-24T07:20:25.214Z,22.3
2022-10-24T07:25:25.120Z,19.2
2022-10-24T07:30:25.132Z,17.1
2022-10-24T07:35:25.113Z,17.1
2022-10-24T07:40:25.100Z,18.9
2022-10-24T07:45:25.099Z,17.5
2022-10-24T07:50:25.104Z,17.5
2022-10-24T07:55:25.111Z,17.7
2022-10-24T08:00:25.098Z,15.8
2022-10-24T08:05:25.112Z,15.4
2022-10-24T08:10:25.115Z,17.2
2022-10-24T08:15:25.106Z,16.2
2022-10-24T08:20:25.093Z,13.9
2022-10-24T08:25:25.118Z,13.9
2022-10-24T08:30:25.094Z,10
2022-10-24T08:35:25.116Z,10
2022-10-24T08:40:25.107Z,9.2
2022-10-24T08:45:25.112Z,12.3
2022-10-24T08:50:25.112Z,10.1
2022-10-24T08:55:31.151Z,10.9
2022-10-24T09:00:25.103Z,14.2
2022-10-24T09:05:25.252Z,16.8
2022-10-24T09:10:25.108Z,17.7
2022-10-24T09:15:25.106Z,16.2
2022-10-24T09:20:25.112Z,16.1
2022-10-24T09:25:25.111Z,18.5
2022-10-24T09:30:28.447Z,21.3
2022-10-24T09:35:25.106Z,21.3
2022-10-24T09:40:25.104Z,27.2
2022-10-24T09:45:25.093Z,21.7
2022-10-24T09:50:25.106Z,25.4
2022-10-24T09:55:25.109Z,27.6
2022-10-24T10:00:25.109Z,22.3
2022-10-24T10:05:25.137Z,24.1
2022-10-24T10:10:25.112Z,28.2
2022-10-24T10:15:25.134Z,22.8
2022-10-24T10:20:25.116Z,22.2
2022-10-24T10:25:25.101Z,22.2
2022-10-24T10:30:25.103Z,23
2022-10-24T10:35:25.103Z,23.4
2022-10-24T10:40:25.101Z,26.1
2022-10-24T10:45:25.112Z,24.5
2022-10-24T10:50:25.109Z,21.9
2022-10-24T10:55:25.114Z,20.4
2022-10-24T11:00:25.091Z,19
2022-10-24T11:05:25.112Z,20
2022-10-24T11:10:25.099Z,18
2022-10-24T11:15:25.101Z,23.5
2022-10-24T11:20:25.104Z,21.3
2022-10-24T11:25:25.115Z,22.1
2022-10-24T11:30:25.106Z,20.1
2022-10-24T11:35:25.110Z,21.6
2022-10-24T11:40:25.132Z,21.8
2022-10-24T11:45:25.111Z,21.3
2022-10-24T11:50:25.714Z,20.8
2022-10-24T11:55:25.108Z,19.5
2022-10-24T12:00:25.105Z,19
2022-10-24T12:05:25.138Z,17.4
2022-10-24T12:10:25.102Z,18
2022-10-24T12:15:25.101Z,20.8
2022-10-24T12:20:25.097Z,14.9
2022-10-24T12:25:25.156Z,17.6
2022-10-24T12:30:25.105Z,19.3
2022-10-24T12:35:30.183Z,21.9
2022-10-24T12:40:25.093Z,17.1
2022-10-24T12:45:25.102Z,12.4
2022-10-24T12:50:25.108Z,17.4
2022-10-24T12:55:25.098Z,20
2022-10-24T13:00:25.094Z,19.5
2022-10-24T13:05:25.113Z,19.5
2022-10-24T13:10:25.106Z,21.4
2022-10-24T13:15:25.104Z,23.9
2022-10-24T13:20:25.103Z,29.1
2022-10-24T13:25:25.105Z,26.6
2022-10-24T13:30:25.106Z,31.2
2022-10-24T13:35:25.121Z,31.2
2022-10-24T13:40:25.099Z,31.2
2022-10-24T13:45:25.097Z,28.8
2022-10-24T13:50:25.108Z,28.8
2022-10-24T13:55:25.103Z,26.1
2022-10-24T14:00:25.100Z,26
2022-10-24T14:05:25.109Z,33.2
2022-10-24T14:10:25.105Z,27
2022-10-24T14:15:25.115Z,25.7
2022-10-24T14:20:25.100Z,27.5
2022-10-24T14:25:25.113Z,22.9
2022-10-24T14:30:25.108Z,28.3
2022-10-24T14:35:25.102Z,24.4
2022-10-24T14:40:25.098Z,24.7
2022-10-24T14:45:25.100Z,22
2022-10-24T14:50:25.106Z,24.4
2022-10-24T14:55:25.108Z,23.4
2022-10-24T15:00:25.138Z,23.5
2022-10-24T15:05:25.088Z,23.5
2022-10-24T15:10:25.107Z,26.3
2022-10-24T15:15:25.101Z,25.6
2022-10-24T15:20:25.107Z,26
2022-10-24T15:25:25.110Z,27.8
2022-10-24T15:30:25.095Z,23.7
2022-10-24T15:35:25.114Z,27.1
2022-10-24T15:40:25.102Z,29.1
2022-10-24T15:45:25.097Z,29.1
2022-10-24T15:50:25.102Z,29.1
2022-10-24T15:55:25.104Z,22.4
2022-10-24T16:00:25.113Z,28
2022-10-24T16:05:25.111Z,23.4
2022-10-24T16:10:25.110Z,23.9
2022-10-24T16:15:25.174Z,22.9
2022-10-24T16:20:25.100Z,23.5
2022-10-24T16:25:25.107Z,22.7
2022-10-24T16:30:25.108Z,19.7
2022-10-24T16:35:25.135Z,16.3
2022-10-24T16:40:25.097Z,16.6
2022-10-24T16:45:25.105Z,18.2
2022-10-24T16:50:25.095Z,17.9
2022-10-24T16:55:25.097Z,17.5
2022-10-24T17:00:25.083Z,20.4
2022-10-24T17:05:25.115Z,19.6
2022-10-24T17:10:25.113Z,20
2022-10-24T17:15:25.104Z,22.8
2022-10-24T17:20:25.092Z,19.9
2022-10-24T17:25:25.108Z,18.8
2022-10-24T17:30:25.104Z,18.4
2022-10-24T17:35:25.104Z,21
2022-10-24T17:40:25.111Z,16.3
2022-10-24T17:45:25.114Z,21.8
2022-10-24T17:50:25.108Z,20.8
2022-10-24T17:55:44.896Z,18.8
2022-10-24T18:00:25.114Z,20
2022-10-24T18:05:25.110Z,17.3
2022-10-24T18:10:25.104Z,17.6
2022-10-24T18:15:25.104Z,16.9
2022-10-24T18:20:25.098Z,16.7
2022-10-24T18:25:25.099Z,16.7
2022-10-24T18:30:25.105Z,19
2022-10-24T18:35:25.112Z,18.3
2022-10-24T18:40:25.094Z,19.4
2022-10-24T18:45:25.090Z,21.7
2022-10-24T18:50:25.084Z,17.3
2022-10-24T18:55:25.092Z,17.3
2022-10-24T19:00:25.091Z,20.6
2022-10-24T19:05:25.099Z,20.6
2022-10-24T19:10:25.091Z,22.8
2022-10-24T19:15:25.107Z,21.6
2022-10-24T19:20:25.101Z,18.6
2022-10-24T19:25:25.102Z,18.5
2022-10-24T19:30:25.084Z,17.9
2022-10-24T19:35:25.090Z,17.9
2022-10-24T19:40:25.102Z,18.5
2022-10-24T19:45:25.273Z,18.7
2022-10-24T19:50:25.098Z,18.5
2022-10-24T19:55:25.107Z,15.9
2022-10-24T20:00:25.101Z,16.1
2022-10-24T20:05:25.093Z,22.7
2022-10-24T20:10:25.109Z,20
2022-10-24T20:15:25.100Z,16.9
2022-10-24T20:20:25.113Z,18.4
2022-10-24T20:25:25.108Z,18.7
2022-10-24T20:30:25.104Z,18
2022-10-24T20:40:25.105Z,17.5
2022-10-24T20:45:25.123Z,19.4
2022-10-24T20:50:25.103Z,17.3
2022-10-24T20:55:32.144Z,15.9
2022-10-24T21:00:25.090Z,17.3
2022-10-24T21:05:25.098Z,21.2
2022-10-24T21:10:25.097Z,22.3
2022-10-24T21:15:25.094Z,19.1
2022-10-24T21:20:25.091Z,23.4
2022-10-24T21:25:25.110Z,19.4
2022-10-24T21:30:25.101Z,17.6
2022-10-24T21:35:25.102Z,20.8
2022-10-24T21:40:25.095Z,22.4
2022-10-24T21:45:25.100Z,22.7
2022-10-24T21:50:25.104Z,23.4
2022-10-24T21:55:25.124Z,31.2
2022-10-24T22:00:25.106Z,33
2022-10-24T22:05:25.095Z,30.3
2022-10-24T22:10:25.110Z,30.8
2022-10-24T22:15:25.096Z,31.7
2022-10-24T22:20:25.094Z,28.8
2022-10-24T22:25:25.112Z,26.1
2022-10-24T22:30:25.094Z,27.4
2022-10-24T22:35:25.109Z,24.3
2022-10-24T22:40:25.091Z,23.7
2022-10-24T22:45:25.107Z,24.5
2022-10-24T22:50:25.098Z,25.8
2022-10-24T22:55:25.101Z,29.4
2022-10-24T23:00:25.104Z,21.5
2022-10-24T23:05:25.094Z,23.8
2022-10-24T23:10:25.103Z,18.9
2022-10-24T23:15:25.104Z,15.8
2022-10-24T23:20:25.100Z,16.7
2022-10-24T23:25:25.100Z,21.8
2022-10-24T23:30:25.092Z,19.7
2022-10-24T23:35:25.093Z,19.5
2022-10-24T23:40:25.090Z,19.5
2022-10-24T23:45:25.107Z,15.9
2022-10-24T23:50:25.100Z,21.3
2022-10-24T23:55:25.094Z,20.6
